createdAt,value
2022-12-04T00:04:43.601Z,4.48
2022-12-04T00:24:45.664Z,4.44
2022-12-04T00:44:47.556Z,4.64
2022-12-04T01:04:49.275Z,4.53
2022-12-04T01:24:51.318Z,4.55
2022-12-04T01:44:53.368Z,4.51
2022-12-04T02:04:55.084Z,4.48
2022-12-04T02:24:56.751Z,4.48
2022-12-04T02:44:58.515Z,4.43
2022-12-04T03:05:00.409Z,4.41
2022-12-04T03:25:02.247Z,4.38
2022-12-04T03:45:03.975Z,4.44
2022-12-04T04:05:05.660Z,4.40
2022-12-04T04:25:07.482Z,4.29
2022-12-04T04:45:09.318Z,4.20
2022-12-04T05:05:10.981Z,3.99
2022-12-04T05:25:12.955Z,3.90
2022-12-04T05:45:14.822Z,3.82
2022-12-04T06:05:16.712Z,3.63
2022-12-04T06:25:18.847Z,3.52
2022-12-04T06:45:20.477Z,3.52
2022-12-04T07:05:22.389Z,3.48
2022-12-04T07:25:23.908Z,3.38
2022-12-04T07:45:28.603Z,3.36
2022-12-04T08:05:30.208Z,3.28
2022-12-04T08:25:32.431Z,3.31
2022-12-04T08:45:33.890Z,3.27
2022-12-04T09:05:36.291Z,3.37
2022-12-04T09:25:37.991Z,3.40
2022-12-04T09:45:40.434Z,3.32
2022-12-04T10:05:42.903Z,3.40
2022-12-04T10:25:45.204Z,3.55
2022-12-04T10:45:46.811Z,3.57
2022-12-04T11:05:48.924Z,3.74
2022-12-04T11:25:50.537Z,3.80
2022-12-04T17:39:33.108Z,4.23
2022-12-04T17:59:35.794Z,4.26
2022-12-04T18:19:40.084Z,4.30
2022-12-04T18:39:43.671Z,4.38
2022-12-04T18:59:45.324Z,4.42
2022-12-04T19:19:47.510Z,4.40
2022-12-04T19:39:49.123Z,4.50
2022-12-04T19:59:52.421Z,4.50
2022-12-04T20:19:54.394Z,4.56
2022-12-04T20:39:57.405Z,4.62
2022-12-04T20:59:59.230Z,4.67
2022-12-04T21:40:49.146Z,4.64
2022-12-04T22:00:51.291Z,4.70
2022-12-04T22:20:57.157Z,4.58
2022-12-04T22:40:59.179Z,4.60
2022-12-04T23:01:03.952Z,4.54
2022-12-04T23:21:06.006Z,4.55
2022-12-04T23:41:07.887Z,4.52
